sensor_id;sensor_type;location;lat;lon;timestamp;P1;durP1;ratioP1;P2;durP2;ratioP2
51718;SDS011;37795;53.236;5.704;2022-10-31T00:01:26;9.20;;;8.30;;
51718;SDS011;37795;53.236;5.704;2022-10-31T00:03:53;8.75;;;7.90;;
51718;SDS011;37795;53.236;5.704;2022-10-31T00:06:20;10.57;;;8.13;;
51718;SDS011;37795;53.236;5.704;2022-10-31T00:08:46;14.10;;;7.95;;
51718;SDS011;37795;53.236;5.704;2022-10-31T00:11:16;12.45;;;8.98;;
51718;SDS011;37795;53.236;5.704;2022-10-31T00:13:42;10.07;;;7.97;;
51718;SDS011;37795;53.236;5.704;2022-10-31T00:16:18;13.03;;;8.57;;
51718;SDS011;37795;53.236;5.704;2022-10-31T00:18:49;10.23;;;8.40;;
51718;SDS011;37795;53.236;5.704;2022-10-31T00:21:16;13.33;;;7.83;;
51718;SDS011;37795;53.236;5.704;2022-10-31T00:23:41;11.00;;;9.38;;
51718;SDS011;37795;53.236;5.704;2022-10-31T00:26:07;11.73;;;9.53;;
51718;SDS011;37795;53.236;5.704;2022-10-31T00:28:33;13.13;;;9.80;;
51718;SDS011;37795;53.236;5.704;2022-10-31T00:31:03;14.48;;;10.13;;
51718;SDS011;37795;53.236;5.704;2022-10-31T00:33:30;12.43;;;9.98;;
51718;SDS011;37795;53.236;5.704;2022-10-31T00:35:57;13.13;;;9.93;;
51718;SDS011;37795;53.236;5.704;2022-10-31T00:38:23;12.30;;;11.00;;
51718;SDS011;37795;53.236;5.704;2022-10-31T00:40:48;11.00;;;10.00;;
51718;SDS011;37795;53.236;5.704;2022-10-31T00:43:14;14.80;;;12.20;;
51718;SDS011;37795;53.236;5.704;2022-10-31T00:45:41;14.67;;;11.80;;
51718;SDS011;37795;53.236;5.704;2022-10-31T00:48:07;15.13;;;11.70;;
51718;SDS011;37795;53.236;5.704;2022-10-31T00:50:33;16.45;;;12.18;;
51718;SDS011;37795;53.236;5.704;2022-10-31T00:52:59;13.75;;;11.85;;
51718;SDS011;37795;53.236;5.704;2022-10-31T00:55:25;16.47;;;12.00;;
51718;SDS011;37795;53.236;5.704;2022-10-31T00:57:50;18.00;;;12.60;;
51718;SDS011;37795;53.236;5.704;2022-10-31T01:00:16;14.15;;;12.25;;
51718;SDS011;37795;53.236;5.704;2022-10-31T01:02:42;16.02;;;11.30;;
51718;SDS011;37795;53.236;5.704;2022-10-31T01:05:08;14.50;;;10.88;;
51718;SDS011;37795;53.236;5.704;2022-10-31T01:07:37;14.93;;;11.82;;
51718;SDS011;37795;53.236;5.704;2022-10-31T01:10:04;15.57;;;11.77;;
51718;SDS011;37795;53.236;5.704;2022-10-31T01:12:35;15.23;;;12.10;;
51718;SDS011;37795;53.236;5.704;2022-10-31T01:15:09;13.07;;;10.90;;
51718;SDS011;37795;53.236;5.704;2022-10-31T01:17:36;10.98;;;9.95;;
51718;SDS011;37795;53.236;5.704;2022-10-31T01:20:03;14.20;;;11.82;;
51718;SDS011;37795;53.236;5.704;2022-10-31T01:22:30;15.25;;;11.15;;
51718;SDS011;37795;53.236;5.704;2022-10-31T01:24:56;13.48;;;10.30;;
51718;SDS011;37795;53.236;5.704;2022-10-31T01:27:22;13.50;;;10.75;;
51718;SDS011;37795;53.236;5.704;2022-10-31T01:29:47;13.10;;;10.95;;
51718;SDS011;37795;53.236;5.704;2022-10-31T01:32:13;14.77;;;9.93;;
51718;SDS011;37795;53.236;5.704;2022-10-31T01:34:39;13.33;;;10.30;;
51718;SDS011;37795;53.236;5.704;2022-10-31T01:37:04;11.52;;;10.35;;
51718;SDS011;37795;53.236;5.704;2022-10-31T01:39:30;13.88;;;9.30;;
51718;SDS011;37795;53.236;5.704;2022-10-31T01:41:56;11.30;;;10.10;;
51718;SDS011;37795;53.236;5.704;2022-10-31T01:46:51;14.23;;;10.82;;
51718;SDS011;37795;53.236;5.704;2022-10-31T01:52:14;13.30;;;10.57;;
51718;SDS011;37795;53.236;5.704;2022-10-31T01:55:07;11.57;;;10.37;;
51718;SDS011;37795;53.236;5.704;2022-10-31T01:57:35;12.82;;;9.57;;
51718;SDS011;37795;53.236;5.704;2022-10-31T02:00:05;11.25;;;9.82;;
51718;SDS011;37795;53.236;5.704;2022-10-31T02:02:32;12.73;;;9.68;;
51718;SDS011;37795;53.236;5.704;2022-10-31T02:04:59;12.25;;;9.68;;
51718;SDS011;37795;53.236;5.704;2022-10-31T02:07:28;11.90;;;10.50;;
51718;SDS011;37795;53.236;5.704;2022-10-31T02:10:03;13.65;;;9.13;;
51718;SDS011;37795;53.236;5.704;2022-10-31T02:12:30;12.33;;;10.67;;
51718;SDS011;37795;53.236;5.704;2022-10-31T02:14:57;11.30;;;10.05;;
51718;SDS011;37795;53.236;5.704;2022-10-31T02:17:24;14.98;;;10.70;;
51718;SDS011;37795;53.236;5.704;2022-10-31T02:30:26;13.27;;;11.65;;
51718;SDS011;37795;53.236;5.704;2022-10-31T02:52:14;17.33;;;14.68;;
51718;SDS011;37795;53.236;5.704;2022-10-31T02:54:42;20.75;;;15.73;;
51718;SDS011;37795;53.236;5.704;2022-10-31T02:57:10;19.38;;;15.73;;
51718;SDS011;37795;53.236;5.704;2022-10-31T02:59:36;17.73;;;15.77;;
51718;SDS011;37795;53.236;5.704;2022-10-31T03:12:27;18.30;;;16.25;;
51718;SDS011;37795;53.236;5.704;2022-10-31T03:17:57;18.47;;;16.67;;
51718;SDS011;37795;53.236;5.704;2022-10-31T03:20:34;17.15;;;15.50;;
51718;SDS011;37795;53.236;5.704;2022-10-31T03:23:10;17.17;;;15.25;;
51718;SDS011;37795;53.236;5.704;2022-10-31T03:25:38;18.42;;;16.55;;
51718;SDS011;37795;53.236;5.704;2022-10-31T03:28:05;18.02;;;16.15;;
51718;SDS011;37795;53.236;5.704;2022-10-31T03:30:33;17.95;;;15.48;;
51718;SDS011;37795;53.236;5.704;2022-10-31T03:33:03;18.20;;;16.25;;
51718;SDS011;37795;53.236;5.704;2022-10-31T03:35:34;18.13;;;16.25;;
51718;SDS011;37795;53.236;5.704;2022-10-31T03:38:01;17.77;;;15.90;;
51718;SDS011;37795;53.236;5.704;2022-10-31T03:40:28;16.87;;;15.00;;
51718;SDS011;37795;53.236;5.704;2022-10-31T03:42:58;17.73;;;15.85;;
51718;SDS011;37795;53.236;5.704;2022-10-31T03:45:28;17.88;;;15.75;;
51718;SDS011;37795;53.236;5.704;2022-10-31T03:47:55;18.70;;;15.87;;
51718;SDS011;37795;53.236;5.704;2022-10-31T03:50:26;18.88;;;16.23;;
51718;SDS011;37795;53.236;5.704;2022-10-31T03:52:58;16.90;;;15.25;;
51718;SDS011;37795;53.236;5.704;2022-10-31T03:55:39;17.35;;;15.65;;
51718;SDS011;37795;53.236;5.704;2022-10-31T03:58:12;18.80;;;16.83;;
51718;SDS011;37795;53.236;5.704;2022-10-31T04:00:44;16.70;;;14.95;;
51718;SDS011;37795;53.236;5.704;2022-10-31T04:03:12;17.67;;;16.08;;
51718;SDS011;37795;53.236;5.704;2022-10-31T04:05:42;16.60;;;14.85;;
51718;SDS011;37795;53.236;5.704;2022-10-31T04:08:12;17.30;;;15.60;;
51718;SDS011;37795;53.236;5.704;2022-10-31T04:10:42;17.65;;;15.82;;
51718;SDS011;37795;53.236;5.704;2022-10-31T04:13:13;18.17;;;15.55;;
51718;SDS011;37795;53.236;5.704;2022-10-31T04:15:42;16.92;;;15.18;;
51718;SDS011;37795;53.236;5.704;2022-10-31T04:18:09;15.57;;;14.05;;
51718;SDS011;37795;53.236;5.704;2022-10-31T04:20:36;17.02;;;15.23;;
51718;SDS011;37795;53.236;5.704;2022-10-31T04:23:03;16.95;;;15.32;;
51718;SDS011;37795;53.236;5.704;2022-10-31T04:25:30;16.13;;;14.43;;
51718;SDS011;37795;53.236;5.704;2022-10-31T04:27:55;16.27;;;14.57;;
51718;SDS011;37795;53.236;5.704;2022-10-31T04:30:21;15.77;;;14.17;;
51718;SDS011;37795;53.236;5.704;2022-10-31T04:32:47;15.95;;;13.45;;
51718;SDS011;37795;53.236;5.704;2022-10-31T04:35:13;14.27;;;12.82;;
51718;SDS011;37795;53.236;5.704;2022-10-31T04:37:38;13.33;;;11.93;;
51718;SDS011;37795;53.236;5.704;2022-10-31T04:40:04;14.45;;;12.95;;
51718;SDS011;37795;53.236;5.704;2022-10-31T04:42:30;14.63;;;12.75;;
51718;SDS011;37795;53.236;5.704;2022-10-31T04:44:56;15.70;;;12.38;;
51718;SDS011;37795;53.236;5.704;2022-10-31T04:47:22;15.73;;;12.10;;
51718;SDS011;37795;53.236;5.704;2022-10-31T04:49:47;16.23;;;12.90;;
51718;SDS011;37795;53.236;5.704;2022-10-31T04:52:13;16.10;;;12.67;;
51718;SDS011;37795;53.236;5.704;2022-10-31T04:54:39;16.52;;;13.57;;
51718;SDS011;37795;53.236;5.704;2022-10-31T04:57:04;16.83;;;13.05;;
51718;SDS011;37795;53.236;5.704;2022-10-31T04:59:30;14.43;;;12.50;;
51718;SDS011;37795;53.236;5.704;2022-10-31T05:01:56;17.30;;;13.33;;
51718;SDS011;37795;53.236;5.704;2022-10-31T05:04:22;15.23;;;12.88;;
51718;SDS011;37795;53.236;5.704;2022-10-31T05:06:47;16.55;;;12.00;;
51718;SDS011;37795;53.236;5.704;2022-10-31T05:09:13;15.10;;;12.27;;
51718;SDS011;37795;53.236;5.704;2022-10-31T05:11:39;14.57;;;13.07;;
51718;SDS011;37795;53.236;5.704;2022-10-31T05:14:05;13.85;;;12.05;;
51718;SDS011;37795;53.236;5.704;2022-10-31T05:16:30;16.83;;;13.00;;
51718;SDS011;37795;53.236;5.704;2022-10-31T05:18:56;17.87;;;13.20;;
51718;SDS011;37795;53.236;5.704;2022-10-31T05:21:21;13.77;;;11.93;;
51718;SDS011;37795;53.236;5.704;2022-10-31T05:23:47;14.88;;;12.45;;
51718;SDS011;37795;53.236;5.704;2022-10-31T05:26:14;15.13;;;12.35;;
51718;SDS011;37795;53.236;5.704;2022-10-31T05:28:39;13.70;;;11.70;;
51718;SDS011;37795;53.236;5.704;2022-10-31T05:31:05;14.63;;;12.63;;
51718;SDS011;37795;53.236;5.704;2022-10-31T05:33:31;18.07;;;12.47;;
51718;SDS011;37795;53.236;5.704;2022-10-31T05:35:56;14.75;;;13.20;;
51718;SDS011;37795;53.236;5.704;2022-10-31T05:38:22;15.63;;;12.95;;
51718;SDS011;37795;53.236;5.704;2022-10-31T05:40:48;14.27;;;12.73;;
51718;SDS011;37795;53.236;5.704;2022-10-31T05:43:13;16.00;;;12.60;;
51718;SDS011;37795;53.236;5.704;2022-10-31T05:45:39;16.08;;;12.43;;
51718;SDS011;37795;53.236;5.704;2022-10-31T05:48:04;14.13;;;12.07;;
51718;SDS011;37795;53.236;5.704;2022-10-31T05:50:30;15.57;;;12.93;;
51718;SDS011;37795;53.236;5.704;2022-10-31T05:53:01;16.38;;;12.35;;
51718;SDS011;37795;53.236;5.704;2022-10-31T05:55:28;16.42;;;12.55;;
51718;SDS011;37795;53.236;5.704;2022-10-31T05:57:54;13.55;;;12.15;;
51718;SDS011;37795;53.236;5.704;2022-10-31T06:00:20;14.48;;;11.18;;
51718;SDS011;37795;53.236;5.704;2022-10-31T06:02:47;13.93;;;12.45;;
51718;SDS011;37795;53.236;5.704;2022-10-31T06:05:14;17.80;;;12.63;;
51718;SDS011;37795;53.236;5.704;2022-10-31T06:07:40;15.33;;;11.63;;
51718;SDS011;37795;53.236;5.704;2022-10-31T06:10:06;17.73;;;11.73;;
51718;SDS011;37795;53.236;5.704;2022-10-31T06:12:33;14.30;;;11.38;;
51718;SDS011;37795;53.236;5.704;2022-10-31T06:15:07;17.55;;;12.07;;
51718;SDS011;37795;53.236;5.704;2022-10-31T06:17:34;14.75;;;10.95;;
51718;SDS011;37795;53.236;5.704;2022-10-31T06:20:00;12.15;;;11.02;;
51718;SDS011;37795;53.236;5.704;2022-10-31T06:22:26;12.25;;;10.57;;
51718;SDS011;37795;53.236;5.704;2022-10-31T06:24:52;13.52;;;11.43;;
51718;SDS011;37795;53.236;5.704;2022-10-31T06:27:18;15.77;;;11.57;;
51718;SDS011;37795;53.236;5.704;2022-10-31T06:29:44;12.68;;;11.45;;
51718;SDS011;37795;53.236;5.704;2022-10-31T06:32:12;14.20;;;11.03;;
51718;SDS011;37795;53.236;5.704;2022-10-31T06:34:39;19.45;;;12.43;;
51718;SDS011;37795;53.236;5.704;2022-10-31T06:37:06;13.65;;;12.20;;
51718;SDS011;37795;53.236;5.704;2022-10-31T06:39:32;16.40;;;12.52;;
51718;SDS011;37795;53.236;5.704;2022-10-31T06:41:58;14.90;;;12.77;;
51718;SDS011;37795;53.236;5.704;2022-10-31T06:44:24;14.57;;;12.60;;
51718;SDS011;37795;53.236;5.704;2022-10-31T06:46:49;13.57;;;12.17;;
51718;SDS011;37795;53.236;5.704;2022-10-31T06:49:15;15.60;;;11.98;;
51718;SDS011;37795;53.236;5.704;2022-10-31T06:51:41;15.70;;;12.40;;
51718;SDS011;37795;53.236;5.704;2022-10-31T06:59:34;15.93;;;14.32;;
51718;SDS011;37795;53.236;5.704;2022-10-31T07:02:00;16.67;;;15.02;;
51718;SDS011;37795;53.236;5.704;2022-10-31T07:04:26;16.83;;;15.00;;
51718;SDS011;37795;53.236;5.704;2022-10-31T07:06:51;15.60;;;14.10;;
51718;SDS011;37795;53.236;5.704;2022-10-31T07:09:17;14.40;;;12.90;;
51718;SDS011;37795;53.236;5.704;2022-10-31T07:11:43;15.57;;;14.07;;
51718;SDS011;37795;53.236;5.704;2022-10-31T07:14:09;16.67;;;15.07;;
51718;SDS011;37795;53.236;5.704;2022-10-31T07:16:34;16.98;;;15.27;;
51718;SDS011;37795;53.236;5.704;2022-10-31T07:19:00;17.97;;;16.13;;
51718;SDS011;37795;53.236;5.704;2022-10-31T07:21:26;16.77;;;15.20;;
51718;SDS011;37795;53.236;5.704;2022-10-31T07:23:51;18.90;;;17.00;;
51718;SDS011;37795;53.236;5.704;2022-10-31T07:26:17;15.70;;;14.27;;
51718;SDS011;37795;53.236;5.704;2022-10-31T07:28:43;16.83;;;15.23;;
51718;SDS011;37795;53.236;5.704;2022-10-31T07:31:10;16.60;;;15.00;;
51718;SDS011;37795;53.236;5.704;2022-10-31T07:33:36;16.63;;;15.13;;
51718;SDS011;37795;53.236;5.704;2022-10-31T07:36:01;16.90;;;15.27;;
51718;SDS011;37795;53.236;5.704;2022-10-31T07:38:27;16.08;;;14.55;;
51718;SDS011;37795;53.236;5.704;2022-10-31T07:40:53;18.27;;;16.47;;
51718;SDS011;37795;53.236;5.704;2022-10-31T07:43:19;18.92;;;17.02;;
51718;SDS011;37795;53.236;5.704;2022-10-31T07:45:48;17.60;;;15.57;;
51718;SDS011;37795;53.236;5.704;2022-10-31T07:48:16;17.33;;;15.73;;
51718;SDS011;37795;53.236;5.704;2022-10-31T07:50:41;17.80;;;16.05;;
51718;SDS011;37795;53.236;5.704;2022-10-31T07:53:08;17.87;;;15.93;;
51718;SDS011;37795;53.236;5.704;2022-10-31T07:55:37;17.67;;;15.73;;
51718;SDS011;37795;53.236;5.704;2022-10-31T07:58:04;16.05;;;14.57;;
51718;SDS011;37795;53.236;5.704;2022-10-31T08:00:33;20.35;;;15.00;;
51718;SDS011;37795;53.236;5.704;2022-10-31T08:03:00;18.58;;;16.67;;
51718;SDS011;37795;53.236;5.704;2022-10-31T08:05:30;16.70;;;15.00;;
51718;SDS011;37795;53.236;5.704;2022-10-31T08:07:57;17.15;;;15.50;;
51718;SDS011;37795;53.236;5.704;2022-10-31T08:10:23;17.03;;;14.37;;
51718;SDS011;37795;53.236;5.704;2022-10-31T08:13:00;17.30;;;15.30;;
51718;SDS011;37795;53.236;5.704;2022-10-31T08:15:30;16.60;;;14.85;;
51718;SDS011;37795;53.236;5.704;2022-10-31T08:17:56;18.07;;;14.20;;
51718;SDS011;37795;53.236;5.704;2022-10-31T08:20:22;16.58;;;13.85;;
51718;SDS011;37795;53.236;5.704;2022-10-31T08:25:28;17.30;;;12.90;;
51718;SDS011;37795;53.236;5.704;2022-10-31T08:27:55;14.38;;;13.02;;
51718;SDS011;37795;53.236;5.704;2022-10-31T08:30:24;13.73;;;12.32;;
51718;SDS011;37795;53.236;5.704;2022-10-31T08:33:05;14.15;;;12.65;;
51718;SDS011;37795;53.236;5.704;2022-10-31T08:35:36;14.73;;;13.13;;
51718;SDS011;37795;53.236;5.704;2022-10-31T08:38:02;13.93;;;12.60;;
51718;SDS011;37795;53.236;5.704;2022-10-31T08:40:29;15.48;;;12.05;;
51718;SDS011;37795;53.236;5.704;2022-10-31T08:42:59;13.18;;;11.85;;
51718;SDS011;37795;53.236;5.704;2022-10-31T08:45:35;11.68;;;10.57;;
51718;SDS011;37795;53.236;5.704;2022-10-31T08:48:02;13.03;;;11.93;;
51718;SDS011;37795;53.236;5.704;2022-10-31T08:50:30;11.90;;;10.77;;
51718;SDS011;37795;53.236;5.704;2022-10-31T08:53:01;12.35;;;11.13;;
51718;SDS011;37795;53.236;5.704;2022-10-31T08:55:27;12.93;;;11.45;;
51718;SDS011;37795;53.236;5.704;2022-10-31T08:57:54;11.85;;;10.75;;
51718;SDS011;37795;53.236;5.704;2022-10-31T09:00:21;23.40;;;11.30;;
51718;SDS011;37795;53.236;5.704;2022-10-31T09:02:47;12.63;;;11.37;;
51718;SDS011;37795;53.236;5.704;2022-10-31T09:05:12;11.90;;;9.83;;
51718;SDS011;37795;53.236;5.704;2022-10-31T09:07:38;11.23;;;10.02;;
51718;SDS011;37795;53.236;5.704;2022-10-31T09:10:04;12.10;;;10.98;;
51718;SDS011;37795;53.236;5.704;2022-10-31T09:12:30;11.27;;;10.18;;
51718;SDS011;37795;53.236;5.704;2022-10-31T09:14:56;11.13;;;10.13;;
51718;SDS011;37795;53.236;5.704;2022-10-31T09:17:21;11.23;;;9.97;;
51718;SDS011;37795;53.236;5.704;2022-10-31T09:19:47;12.00;;;9.98;;
51718;SDS011;37795;53.236;5.704;2022-10-31T09:22:13;10.07;;;9.18;;
51718;SDS011;37795;53.236;5.704;2022-10-31T09:24:39;13.32;;;10.98;;
51718;SDS011;37795;53.236;5.704;2022-10-31T09:27:04;10.03;;;9.00;;
51718;SDS011;37795;53.236;5.704;2022-10-31T09:29:30;9.87;;;8.73;;
51718;SDS011;37795;53.236;5.704;2022-10-31T09:31:56;10.00;;;9.00;;
51718;SDS011;37795;53.236;5.704;2022-10-31T09:34:22;9.53;;;8.53;;
51718;SDS011;37795;53.236;5.704;2022-10-31T09:36:47;10.18;;;9.20;;
51718;SDS011;37795;53.236;5.704;2022-10-31T09:39:13;10.98;;;9.27;;
51718;SDS011;37795;53.236;5.704;2022-10-31T09:50:00;8.88;;;8.00;;
51718;SDS011;37795;53.236;5.704;2022-10-31T09:52:38;8.00;;;7.30;;
51718;SDS011;37795;53.236;5.704;2022-10-31T09:55:15;8.75;;;7.68;;
51718;SDS011;37795;53.236;5.704;2022-10-31T09:57:44;9.57;;;7.70;;
51718;SDS011;37795;53.236;5.704;2022-10-31T10:00:15;9.40;;;6.97;;
51718;SDS011;37795;53.236;5.704;2022-10-31T10:02:44;9.82;;;7.70;;
51718;SDS011;37795;53.236;5.704;2022-10-31T10:05:19;9.15;;;7.65;;
51718;SDS011;37795;53.236;5.704;2022-10-31T10:07:55;9.38;;;7.38;;
51718;SDS011;37795;53.236;5.704;2022-10-31T10:27:58;11.77;;;9.73;;
51718;SDS011;37795;53.236;5.704;2022-10-31T10:31:20;13.55;;;11.73;;
51718;SDS011;37795;53.236;5.704;2022-10-31T10:33:47;11.90;;;10.63;;
51718;SDS011;37795;53.236;5.704;2022-10-31T10:36:37;13.27;;;11.85;;
51718;SDS011;37795;53.236;5.704;2022-10-31T10:39:13;13.20;;;11.52;;
51718;SDS011;37795;53.236;5.704;2022-10-31T10:41:47;14.63;;;13.10;;
51718;SDS011;37795;53.236;5.704;2022-10-31T10:44:32;14.25;;;12.75;;
51718;SDS011;37795;53.236;5.704;2022-10-31T10:47:17;13.57;;;11.23;;
51718;SDS011;37795;53.236;5.704;2022-10-31T10:50:03;14.55;;;12.05;;
51718;SDS011;37795;53.236;5.704;2022-10-31T10:59:36;18.60;;;13.82;;
51718;SDS011;37795;53.236;5.704;2022-10-31T11:02:03;14.50;;;12.85;;
51718;SDS011;37795;53.236;5.704;2022-10-31T11:04:40;15.05;;;13.38;;
51718;SDS011;37795;53.236;5.704;2022-10-31T11:07:08;13.88;;;12.10;;
51718;SDS011;37795;53.236;5.704;2022-10-31T11:09:35;14.07;;;12.35;;
51718;SDS011;37795;53.236;5.704;2022-10-31T11:12:21;11.93;;;10.73;;
51718;SDS011;37795;53.236;5.704;2022-10-31T11:14:57;11.48;;;10.43;;
51718;SDS011;37795;53.236;5.704;2022-10-31T11:17:27;11.57;;;10.38;;
51718;SDS011;37795;53.236;5.704;2022-10-31T11:22:37;12.77;;;10.15;;
51718;SDS011;37795;53.236;5.704;2022-10-31T11:27:44;10.85;;;9.75;;
51718;SDS011;37795;53.236;5.704;2022-10-31T11:30:12;10.73;;;9.63;;
51718;SDS011;37795;53.236;5.704;2022-10-31T11:32:43;11.85;;;10.60;;
51718;SDS011;37795;53.236;5.704;2022-10-31T11:35:17;8.82;;;7.93;;
51718;SDS011;37795;53.236;5.704;2022-10-31T11:37:44;8.88;;;7.80;;
51718;SDS011;37795;53.236;5.704;2022-10-31T11:40:15;7.47;;;6.63;;
51718;SDS011;37795;53.236;5.704;2022-10-31T11:42:44;7.85;;;6.15;;
51718;SDS011;37795;53.236;5.704;2022-10-31T11:45:18;8.10;;;6.38;;
51718;SDS011;37795;53.236;5.704;2022-10-31T11:47:54;8.32;;;6.85;;
51718;SDS011;37795;53.236;5.704;2022-10-31T11:50:25;10.73;;;7.97;;
51718;SDS011;37795;53.236;5.704;2022-10-31T11:53:00;7.03;;;6.30;;
51718;SDS011;37795;53.236;5.704;2022-10-31T11:55:36;8.77;;;7.47;;
51718;SDS011;37795;53.236;5.704;2022-10-31T11:58:03;8.98;;;7.55;;
51718;SDS011;37795;53.236;5.704;2022-10-31T12:00:31;8.93;;;7.00;;
51718;SDS011;37795;53.236;5.704;2022-10-31T12:03:12;7.38;;;6.57;;
51718;SDS011;37795;53.236;5.704;2022-10-31T12:06:20;9.45;;;8.25;;
51718;SDS011;37795;53.236;5.704;2022-10-31T12:08:49;9.35;;;7.55;;
51718;SDS011;37795;53.236;5.704;2022-10-31T12:12:05;9.85;;;8.35;;
51718;SDS011;37795;53.236;5.704;2022-10-31T12:17:03;9.25;;;8.27;;
51718;SDS011;37795;53.236;5.704;2022-10-31T12:22:28;10.07;;;8.98;;
51718;SDS011;37795;53.236;5.704;2022-10-31T12:33:34;14.63;;;11.60;;
51718;SDS011;37795;53.236;5.704;2022-10-31T12:44:05;17.63;;;14.05;;
51718;SDS011;37795;53.236;5.704;2022-10-31T12:55:02;15.83;;;11.93;;
51718;SDS011;37795;53.236;5.704;2022-10-31T12:57:37;13.35;;;11.07;;
51718;SDS011;37795;53.236;5.704;2022-10-31T13:00:11;13.45;;;11.50;;
51718;SDS011;37795;53.236;5.704;2022-10-31T13:05:45;12.15;;;10.75;;
51718;SDS011;37795;53.236;5.704;2022-10-31T13:08:15;17.23;;;11.27;;
51718;SDS011;37795;53.236;5.704;2022-10-31T13:16:24;13.67;;;9.90;;
51718;SDS011;37795;53.236;5.704;2022-10-31T13:18:58;11.45;;;9.40;;
51718;SDS011;37795;53.236;5.704;2022-10-31T13:21:39;10.45;;;8.60;;
51718;SDS011;37795;53.236;5.704;2022-10-31T13:24:12;10.02;;;7.57;;
51718;SDS011;37795;53.236;5.704;2022-10-31T13:26:43;9.40;;;6.85;;
51718;SDS011;37795;53.236;5.704;2022-10-31T13:29:24;7.45;;;6.57;;
51718;SDS011;37795;53.236;5.704;2022-10-31T13:31:51;8.65;;;5.97;;
51718;SDS011;37795;53.236;5.704;2022-10-31T13:39:44;7.57;;;4.55;;
51718;SDS011;37795;53.236;5.704;2022-10-31T13:45:02;7.72;;;5.03;;
51718;SDS011;37795;53.236;5.704;2022-10-31T13:48:16;10.02;;;4.97;;
51718;SDS011;37795;53.236;5.704;2022-10-31T13:51:00;9.00;;;4.53;;
51718;SDS011;37795;53.236;5.704;2022-10-31T13:53:44;7.93;;;3.75;;
51718;SDS011;37795;53.236;5.704;2022-10-31T13:56:14;7.18;;;4.38;;
51718;SDS011;37795;53.236;5.704;2022-10-31T14:01:29;6.90;;;3.83;;
51718;SDS011;37795;53.236;5.704;2022-10-31T14:07:12;5.78;;;3.33;;
51718;SDS011;37795;53.236;5.704;2022-10-31T14:12:36;6.45;;;3.72;;
51718;SDS011;37795;53.236;5.704;2022-10-31T14:17:52;6.90;;;3.58;;
51718;SDS011;37795;53.236;5.704;2022-10-31T14:20:45;5.97;;;3.75;;
51718;SDS011;37795;53.236;5.704;2022-10-31T14:28:50;7.57;;;4.50;;
51718;SDS011;37795;53.236;5.704;2022-10-31T14:39:25;11.77;;;4.03;;
51718;SDS011;37795;53.236;5.704;2022-10-31T14:48:10;7.20;;;5.18;;
51718;SDS011;37795;53.236;5.704;2022-10-31T14:50:53;7.68;;;5.45;;
51718;SDS011;37795;53.236;5.704;2022-10-31T14:53:29;11.63;;;5.28;;
51718;SDS011;37795;53.236;5.704;2022-10-31T14:55:58;9.38;;;6.00;;
51718;SDS011;37795;53.236;5.704;2022-10-31T15:01:04;8.73;;;6.32;;
51718;SDS011;37795;53.236;5.704;2022-10-31T15:03:35;9.98;;;6.95;;
51718;SDS011;37795;53.236;5.704;2022-10-31T15:06:14;10.02;;;6.80;;
51718;SDS011;37795;53.236;5.704;2022-10-31T15:08:49;8.63;;;6.18;;
51718;SDS011;37795;53.236;5.704;2022-10-31T15:11:21;8.45;;;5.82;;
51718;SDS011;37795;53.236;5.704;2022-10-31T15:16:32;9.25;;;5.35;;
51718;SDS011;37795;53.236;5.704;2022-10-31T15:19:05;8.63;;;5.13;;
51718;SDS011;37795;53.236;5.704;2022-10-31T15:21:34;8.82;;;5.25;;
51718;SDS011;37795;53.236;5.704;2022-10-31T15:24:05;8.27;;;5.25;;
51718;SDS011;37795;53.236;5.704;2022-10-31T15:26:40;11.48;;;6.13;;
51718;SDS011;37795;53.236;5.704;2022-10-31T15:29:13;7.28;;;5.95;;
51718;SDS011;37795;53.236;5.704;2022-10-31T15:31:57;7.75;;;6.13;;
51718;SDS011;37795;53.236;5.704;2022-10-31T15:34:38;9.10;;;5.50;;
51718;SDS011;37795;53.236;5.704;2022-10-31T15:37:09;13.25;;;6.63;;
51718;SDS011;37795;53.236;5.704;2022-10-31T15:39:46;9.40;;;6.33;;
51718;SDS011;37795;53.236;5.704;2022-10-31T15:42:14;9.63;;;5.70;;
51718;SDS011;37795;53.236;5.704;2022-10-31T15:44:50;11.10;;;5.57;;
51718;SDS011;37795;53.236;5.704;2022-10-31T15:47:45;8.77;;;4.72;;
51718;SDS011;37795;53.236;5.704;2022-10-31T15:50:21;7.28;;;4.95;;
51718;SDS011;37795;53.236;5.704;2022-10-31T15:52:57;9.75;;;5.05;;
51718;SDS011;37795;53.236;5.704;2022-10-31T15:55:25;6.32;;;4.80;;
51718;SDS011;37795;53.236;5.704;2022-10-31T15:57:56;9.88;;;5.63;;
51718;SDS011;37795;53.236;5.704;2022-10-31T16:00:25;8.50;;;4.78;;
51718;SDS011;37795;53.236;5.704;2022-10-31T16:05:32;8.93;;;5.00;;
51718;SDS011;37795;53.236;5.704;2022-10-31T16:08:01;9.43;;;4.30;;
51718;SDS011;37795;53.236;5.704;2022-10-31T16:10:26;7.00;;;4.17;;
51718;SDS011;37795;53.236;5.704;2022-10-31T16:12:57;5.15;;;3.58;;
51718;SDS011;37795;53.236;5.704;2022-10-31T16:15:25;9.18;;;4.10;;
51718;SDS011;37795;53.236;5.704;2022-10-31T16:17:51;10.23;;;4.60;;
51718;SDS011;37795;53.236;5.704;2022-10-31T16:20:23;6.65;;;4.10;;
51718;SDS011;37795;53.236;5.704;2022-10-31T16:22:52;11.70;;;4.32;;
51718;SDS011;37795;53.236;5.704;2022-10-31T16:25:26;7.68;;;4.65;;
51718;SDS011;37795;53.236;5.704;2022-10-31T16:28:12;6.78;;;4.13;;
51718;SDS011;37795;53.236;5.704;2022-10-31T16:30:44;8.52;;;4.50;;
51718;SDS011;37795;53.236;5.704;2022-10-31T16:33:27;7.90;;;4.30;;
51718;SDS011;37795;53.236;5.704;2022-10-31T16:35:56;6.75;;;4.50;;
51718;SDS011;37795;53.236;5.704;2022-10-31T16:38:23;8.25;;;4.50;;
51718;SDS011;37795;53.236;5.704;2022-10-31T16:40:49;10.30;;;5.65;;
51718;SDS011;37795;53.236;5.704;2022-10-31T16:43:16;9.93;;;5.50;;
51718;SDS011;37795;53.236;5.704;2022-10-31T16:45:44;10.27;;;6.20;;
51718;SDS011;37795;53.236;5.704;2022-10-31T16:48:16;9.20;;;6.05;;
51718;SDS011;37795;53.236;5.704;2022-10-31T16:50:46;10.73;;;6.27;;
51718;SDS011;37795;53.236;5.704;2022-10-31T16:53:13;9.93;;;6.47;;
51718;SDS011;37795;53.236;5.704;2022-10-31T16:55:42;11.33;;;6.43;;
51718;SDS011;37795;53.236;5.704;2022-10-31T16:58:12;8.75;;;6.65;;
51718;SDS011;37795;53.236;5.704;2022-10-31T17:00:44;12.63;;;6.50;;
51718;SDS011;37795;53.236;5.704;2022-10-31T17:03:10;14.25;;;8.20;;
51718;SDS011;37795;53.236;5.704;2022-10-31T17:05:36;11.77;;;7.90;;
51718;SDS011;37795;53.236;5.704;2022-10-31T17:08:02;9.85;;;7.38;;
51718;SDS011;37795;53.236;5.704;2022-10-31T17:10:28;9.83;;;7.10;;
51718;SDS011;37795;53.236;5.704;2022-10-31T17:12:54;12.00;;;7.93;;
51718;SDS011;37795;53.236;5.704;2022-10-31T17:15:25;9.15;;;7.72;;
51718;SDS011;37795;53.236;5.704;2022-10-31T17:17:53;11.48;;;7.30;;
51718;SDS011;37795;53.236;5.704;2022-10-31T17:20:23;11.80;;;7.30;;
51718;SDS011;37795;53.236;5.704;2022-10-31T17:22:50;13.23;;;7.75;;
51718;SDS011;37795;53.236;5.704;2022-10-31T17:25:17;13.40;;;7.67;;
51718;SDS011;37795;53.236;5.704;2022-10-31T17:27:45;10.27;;;7.83;;
51718;SDS011;37795;53.236;5.704;2022-10-31T17:30:14;10.35;;;7.90;;
51718;SDS011;37795;53.236;5.704;2022-10-31T17:32:42;9.40;;;7.45;;
51718;SDS011;37795;53.236;5.704;2022-10-31T17:35:09;16.85;;;8.52;;
51718;SDS011;37795;53.236;5.704;2022-10-31T17:37:37;14.20;;;8.40;;
51718;SDS011;37795;53.236;5.704;2022-10-31T17:40:03;10.00;;;8.32;;
51718;SDS011;37795;53.236;5.704;2022-10-31T17:42:30;13.90;;;9.27;;
51718;SDS011;37795;53.236;5.704;2022-10-31T17:44:56;16.10;;;9.27;;
51718;SDS011;37795;53.236;5.704;2022-10-31T17:47:22;11.43;;;9.90;;